EST,Max TemperatureF,Mean TemperatureF,Min TemperatureF,Max Dew PointF,MeanDew PointF,Min DewpointF,Max Humidity, Mean Humidity, Min Humidity, Max Sea Level PressureIn, Mean Sea Level PressureIn, Min Sea Level PressureIn, Max VisibilityMiles, Mean VisibilityMiles, Min VisibilityMiles, Max Wind SpeedMPH, Mean Wind SpeedMPH, Max Gust SpeedMPH,PrecipitationIn, CloudCover, Events, WindDirDegrees
2014-1-1,64,60,57,63,57,48,100,89,67,30.27,30.19,30.08,10,8,4,12,8,,0.00,8,Rain,38
2014-1-2,80,70,59,70,65,57,100,95,58,30.07,29.96,29.84,15,6,0,21,6,30,0.00,7,Fog-Rain-Thunderstorm,234
2014-1-3,59,50,41,55,37,25,94,67,37,30.29,30.15,30.00,20,12,10,18,13,26,0.00,3,,4
2014-1-4,66,54,41,55,47,36,88,80,64,30.26,30.18,30.10,15,11,10,10,7,,0.00,4,,37
2014-1-5,80,68,57,64,59,55,100,82,48,30.09,30.03,29.97,12,10,7,9,6,,0.00,5,,34
2014-1-6,75,58,42,70,47,19,100,72,37,30.33,30.13,29.97,20,9,0,20,9,29,0.00,5,Fog,289
2014-1-7,46,40,33,30,19,10,81,47,23,30.45,30.37,30.29,20,12,10,15,11,23,0.00,2,,10
2014-1-8,66,50,33,50,39,28,82,73,52,30.41,30.34,30.28,20,12,10,15,10,20,0.00,7,,29
2014-1-9,71,63,55,68,59,50,100,90,82,30.30,30.25,30.19,10,8,2,14,9,21,0.00,8,Rain,59
2014-1-10,78,72,66,70,67,64,100,92,65,30.22,30.15,30.08,15,9,1,9,5,,0.00,6,,106
2014-1-11,82,73,64,73,68,63,100,91,51,30.10,30.04,29.95,15,9,0,22,9,32,0.00,6,Fog-Rain,190
2014-1-12,68,59,50,64,51,34,100,77,28,30.22,30.13,30.03,20,10,5,13,7,17,0.00,1,,342
2014-1-13,77,64,50,68,54,45,94,80,54,30.18,30.11,29.99,20,13,10,10,3,17,0.00,3,,149
2014-1-14,71,63,53,70,63,54,100,92,73,30.04,29.99,29.95,15,10,5,13,8,17,0.00,6,Rain,242
2014-1-15,64,55,46,52,47,37,100,82,37,30.09,30.01,29.96,15,10,2,12,3,,0.00,3,Rain,296
2014-1-16,55,46,35,52,34,19,100,64,26,30.19,30.10,29.99,20,14,10,17,8,24,0.00,2,Rain,319
2014-1-17,64,48,32,45,36,30,100,76,28,30.25,30.17,30.12,15,12,10,7,1,,0.00,3,,240
2014-1-18,55,44,33,50,32,10,100,66,17,30.31,30.20,30.13,20,12,10,15,6,20,0.00,0,,304
2014-1-19,66,49,32,52,39,28,100,82,46,30.26,30.19,30.15,20,11,1,13,2,,0.00,1,,242
2014-1-20,73,58,42,54,47,43,100,88,33,30.18,30.12,30.05,15,7,0,14,1,20,0.00,4,Fog,267
2014-1-21,71,60,48,63,52,36,100,85,51,30.06,29.96,29.84,15,6,0,20,4,25,0.00,5,Fog,274
2014-1-22,55,45,35,36,29,12,87,56,18,30.22,30.09,29.94,20,12,10,13,8,23,0.00,0,,323
2014-1-23,62,48,33,32,29,18,93,63,22,30.38,30.28,30.20,15,12,10,12,2,,0.00,0,,34
2014-1-24,57,48,39,36,29,19,71,57,25,30.48,30.37,30.30,15,12,10,12,7,18,0.00,2,,27
2014-1-25,69,56,42,48,40,34,88,69,38,30.30,30.18,30.05,15,11,10,13,5,,0.00,5,Rain,319
2014-1-26,64,57,50,63,55,48,100,94,68,30.10,30.04,30.01,12,6,1,9,2,,0.00,7,Rain,168
2014-1-27,73,65,55,66,61,55,100,96,65,30.04,30.00,29.97,12,7,0,13,4,,0.00,7,Fog-Rain,210
2014-1-28,78,66,53,63,57,54,100,87,47,30.08,30.02,29.97,15,6,0,9,2,,0.00,6,Fog-Rain,235
2014-1-29,64,54,44,64,54,45,100,98,87,30.22,30.10,29.99,10,8,2,17,6,25,0.00,7,Rain,354
2014-1-30,50,46,42,50,46,43,100,100,94,30.20,30.15,30.11,10,9,5,13,8,20,0.00,8,Rain,19
2014-1-31,62,56,50,61,55,50,100,100,94,30.14,30.10,30.03,10,5,0,13,7,18,0.00,8,Rain,43